createdAt,value
2018-02-08T00:02:24.625Z,41.13
2018-02-08T00:04:52.099Z,36.53
2018-02-08T00:07:19.577Z,37.95
2018-02-08T00:09:47.821Z,39.70
2018-02-08T00:12:15.285Z,45.35
2018-02-08T00:14:42.766Z,44.58
2018-02-08T00:17:10.238Z,43.55
2018-02-08T00:19:37.713Z,42.42
2018-02-08T00:22:05.200Z,40.33
2018-02-08T00:24:32.662Z,40.72
2018-02-08T00:27:00.130Z,44.25
2018-02-08T00:29:27.612Z,47.58
2018-02-08T00:31:55.075Z,41.75
2018-02-08T00:34:22.534Z,49.63
2018-02-08T00:36:50.018Z,45.25
2018-02-08T00:39:17.483Z,50.28
2018-02-08T00:41:44.975Z,49.22
2018-02-08T00:44:13.292Z,41.28
2018-02-08T00:46:40.762Z,50.78
2018-02-08T00:49:08.258Z,44.22
2018-02-08T00:51:35.819Z,50.42
2018-02-08T00:54:04.054Z,48.50
2018-02-08T00:56:31.537Z,45.20
2018-02-08T00:58:59.762Z,43.55
2018-02-08T01:01:27.253Z,48.83
2018-02-08T01:03:54.716Z,47.05
2018-02-08T01:06:22.205Z,46.65
2018-02-08T01:08:50.434Z,54.97
2018-02-08T01:11:17.898Z,48.65
2018-02-08T01:13:45.372Z,48.38
2018-02-08T01:16:12.838Z,51.15
2018-02-08T01:18:41.094Z,50.12
2018-02-08T01:21:08.554Z,50.17
2018-02-08T01:23:36.067Z,53.72
2018-02-08T01:26:03.522Z,45.20
2018-02-08T01:28:31.015Z,49.33
2018-02-08T01:30:58.539Z,44.38
2018-02-08T01:33:25.998Z,47.85
2018-02-08T01:35:53.479Z,51.60
2018-02-08T01:38:20.942Z,62.47
2018-02-08T01:40:48.430Z,46.92
2018-02-08T01:43:16.666Z,51.05
2018-02-08T01:45:44.142Z,40.53
2018-02-08T01:48:11.613Z,44.85
2018-02-08T01:50:39.862Z,46.15
2018-02-08T01:53:07.356Z,49.00
2018-02-08T01:55:35.578Z,47.80
2018-02-08T01:58:03.093Z,44.15
2018-02-08T02:00:30.676Z,41.70
2018-02-08T02:02:58.235Z,45.00
2018-02-08T02:05:25.702Z,44.97
2018-02-08T02:07:53.191Z,45.75
2018-02-08T02:10:20.682Z,40.55
2018-02-08T02:12:48.902Z,47.05
2018-02-08T02:15:16.378Z,57.10
2018-02-08T02:17:43.842Z,44.10
2018-02-08T02:20:11.331Z,50.88
2018-02-08T02:22:38.798Z,45.83
2018-02-08T02:25:06.262Z,44.58
2018-02-08T02:27:33.758Z,42.92
2018-02-08T02:30:01.216Z,45.15
2018-02-08T02:32:28.694Z,46.88
2018-02-08T02:34:56.938Z,50.33
2018-02-08T02:37:24.440Z,48.92
2018-02-08T02:39:52.674Z,51.95
2018-02-08T02:42:20.160Z,51.25
2018-02-08T02:44:48.407Z,45.72
2018-02-08T02:47:15.878Z,49.63
2018-02-08T02:49:44.117Z,53.87
2018-02-08T02:52:11.582Z,51.20
2018-02-08T02:54:39.068Z,56.08
2018-02-08T02:57:06.622Z,57.95
2018-02-08T02:59:34.236Z,58.30
2018-02-08T03:02:01.703Z,54.80
2018-02-08T03:04:29.181Z,54.28
2018-02-08T03:06:56.648Z,57.70
2018-02-08T03:09:24.129Z,52.45
2018-02-08T03:11:52.361Z,53.40
2018-02-08T03:14:19.846Z,55.67
2018-02-08T03:16:47.319Z,54.53
2018-02-08T03:19:15.547Z,52.78
2018-02-08T03:21:43.026Z,60.78
2018-02-08T03:24:11.331Z,62.25
2018-02-08T03:26:39.570Z,49.63
2018-02-08T03:29:07.037Z,50.75
2018-02-08T03:31:34.502Z,45.20
2018-02-08T03:34:02.757Z,61.92
2018-02-08T03:36:30.230Z,47.95
2018-02-08T03:38:58.475Z,55.22
2018-02-08T03:41:26.005Z,49.15
2018-02-08T03:43:53.479Z,50.28
2018-02-08T03:46:20.942Z,51.20
2018-02-08T03:48:48.413Z,53.40
2018-02-08T03:51:15.886Z,42.17
2018-02-08T03:53:43.361Z,52.40
2018-02-08T03:56:11.600Z,52.60
2018-02-08T03:58:39.825Z,57.08
2018-02-08T04:01:07.323Z,44.33
2018-02-08T04:03:34.782Z,63.80
2018-02-08T04:06:02.303Z,51.58
2018-02-08T04:08:29.763Z,57.60
2018-02-08T04:10:57.234Z,56.15
2018-02-08T04:13:24.721Z,50.97
2018-02-08T04:15:52.181Z,56.60
2018-02-08T04:18:19.642Z,55.33
2018-02-08T04:20:47.898Z,51.53
2018-02-08T04:23:15.388Z,49.20
2018-02-08T04:25:43.698Z,47.50
2018-02-08T04:28:11.171Z,52.00
2018-02-08T04:30:38.634Z,50.70
2018-02-08T04:33:06.097Z,54.35
2018-02-08T04:35:33.623Z,53.55
2018-02-08T04:38:01.185Z,53.97
2018-02-08T04:40:40.621Z,56.90
2018-02-08T04:43:20.110Z,49.72
2018-02-08T04:45:59.338Z,51.35
2018-02-08T04:48:26.829Z,53.35
2018-02-08T04:50:55.062Z,52.70
2018-02-08T04:53:22.540Z,46.88
2018-02-08T04:55:50.791Z,53.33
2018-02-08T04:58:18.250Z,57.53
2018-02-08T05:00:45.738Z,56.40
2018-02-08T05:03:13.985Z,50.05
2018-02-08T05:05:41.460Z,60.90
2018-02-08T05:08:09.718Z,61.88
2018-02-08T05:10:37.178Z,50.40
2018-02-08T05:13:04.687Z,57.78
2018-02-08T05:15:32.170Z,57.17
2018-02-08T05:17:59.698Z,63.67
2018-02-08T05:20:27.260Z,57.15
2018-02-08T05:22:54.725Z,63.67
2018-02-08T05:25:22.198Z,58.75
2018-02-08T05:27:49.683Z,55.95
2018-02-08T05:30:17.147Z,59.72
2018-02-08T05:32:45.397Z,57.62
2018-02-08T05:35:12.862Z,57.38
2018-02-08T05:37:40.375Z,54.95
2018-02-08T05:40:07.934Z,51.72
2018-02-08T05:42:35.492Z,61.05
2018-02-08T05:45:02.974Z,53.67
2018-02-08T05:47:30.438Z,70.97
2018-02-08T05:49:57.923Z,58.83
2018-02-08T05:52:26.149Z,54.25
2018-02-08T05:54:53.933Z,59.92
2018-02-08T05:57:21.394Z,53.05
2018-02-08T05:59:48.888Z,50.75
2018-02-08T06:02:17.118Z,68.43
2018-02-08T06:04:44.593Z,56.90
2018-02-08T06:07:12.066Z,54.47
2018-02-08T06:09:40.306Z,57.25
2018-02-08T06:12:07.781Z,50.03
2018-02-08T06:14:36.980Z,57.70
2018-02-08T06:17:04.453Z,52.90
2018-02-08T06:19:31.914Z,70.85
2018-02-08T06:22:00.165Z,76.37
2018-02-08T06:24:27.627Z,49.53
2018-02-08T06:26:55.102Z,68.12
2018-02-08T06:29:23.364Z,60.38
2018-02-08T06:31:50.825Z,59.22
2018-02-08T06:34:19.062Z,64.72
2018-02-08T06:36:46.562Z,65.57
2018-02-08T06:39:14.792Z,52.38
2018-02-08T06:41:42.327Z,49.42
2018-02-08T06:44:09.884Z,58.28
2018-02-08T06:46:37.447Z,55.20
2018-02-08T06:49:04.914Z,49.97
2018-02-08T06:51:32.395Z,58.85
2018-02-08T06:53:59.974Z,50.92
2018-02-08T06:56:27.462Z,55.20
2018-02-08T06:58:54.933Z,52.67
2018-02-08T07:01:22.414Z,50.88
2018-02-08T07:03:49.889Z,56.90
2018-02-08T07:06:17.352Z,57.40
2018-02-08T07:08:44.821Z,50.63
2018-02-08T07:11:13.072Z,60.45
2018-02-08T07:13:40.543Z,51.72
2018-02-08T07:16:08.028Z,51.05
2018-02-08T07:18:35.510Z,46.17
2018-02-08T07:21:02.985Z,47.00
2018-02-08T07:23:30.478Z,42.78
2018-02-08T07:25:58.706Z,47.35
2018-02-08T07:28:26.170Z,45.17
2018-02-08T07:30:53.654Z,48.08
2018-02-08T07:33:21.150Z,37.15
2018-02-08T07:35:48.638Z,42.90
2018-02-08T07:38:16.106Z,38.95
2018-02-08T07:40:43.580Z,45.15
2018-02-08T07:43:11.087Z,37.65
2018-02-08T07:45:38.603Z,35.13
2018-02-08T07:48:06.862Z,37.58
2018-02-08T07:50:34.337Z,33.47
2018-02-08T07:53:02.590Z,34.30
2018-02-08T07:55:30.069Z,35.67
2018-02-08T07:57:58.306Z,33.45
2018-02-08T08:00:25.791Z,31.12
2018-02-08T08:02:54.026Z,37.75
2018-02-08T08:05:21.527Z,33.50
2018-02-08T08:07:49.767Z,46.03
2018-02-08T08:10:17.270Z,35.72
2018-02-08T08:12:45.530Z,32.67
2018-02-08T08:15:13.018Z,35.15
2018-02-08T08:17:40.492Z,43.97
2018-02-08T08:20:08.357Z,41.22
2018-02-08T08:22:35.915Z,35.95
2018-02-08T08:25:03.546Z,40.03
2018-02-08T08:27:31.778Z,34.28
2018-02-08T08:29:59.252Z,33.95
2018-02-08T08:32:26.772Z,37.85
2018-02-08T08:34:54.226Z,39.53
2018-02-08T08:37:21.822Z,42.85
2018-02-08T08:39:49.310Z,36.78
2018-02-08T08:42:16.766Z,41.35
2018-02-08T08:44:45.019Z,41.65
2018-02-08T08:47:12.485Z,41.03
2018-02-08T08:49:41.689Z,36.58
2018-02-08T08:52:09.914Z,33.58
2018-02-08T08:54:37.381Z,41.08
2018-02-08T08:57:04.878Z,39.97
2018-02-08T08:59:32.342Z,33.55
2018-02-08T09:01:59.829Z,40.80
2018-02-08T09:04:27.289Z,36.22
2018-02-08T09:06:54.762Z,40.65
2018-02-08T09:09:22.257Z,38.47
2018-02-08T09:11:50.542Z,41.47
2018-02-08T09:14:17.969Z,38.75
2018-02-08T09:16:45.475Z,37.15
2018-02-08T09:19:13.831Z,38.15
2018-02-08T09:21:42.090Z,35.60
2018-02-08T09:24:10.338Z,40.40
2018-02-08T09:26:37.799Z,37.80
2018-02-08T09:29:05.282Z,37.43
2018-02-08T09:31:33.526Z,40.10
2018-02-08T09:34:00.997Z,34.60
2018-02-08T09:36:28.618Z,36.07
2018-02-08T09:38:56.801Z,34.03
2018-02-08T09:41:24.287Z,38.70
2018-02-08T09:43:51.746Z,36.10
2018-02-08T09:46:20.727Z,35.23
2018-02-08T09:48:48.189Z,32.40
2018-02-08T09:51:15.659Z,32.07
2018-02-08T09:53:43.163Z,33.30
2018-02-08T09:56:10.623Z,33.73
2018-02-08T09:58:38.101Z,33.40
2018-02-08T10:01:05.571Z,33.80
2018-02-08T10:03:33.029Z,35.93
2018-02-08T10:06:00.502Z,30.57
2018-02-08T10:08:28.733Z,40.27
2018-02-08T10:10:56.209Z,33.80
2018-02-08T10:13:23.679Z,38.20
2018-02-08T10:15:51.154Z,39.10
2018-02-08T10:18:19.525Z,34.87
2018-02-08T10:20:46.986Z,29.43
2018-02-08T10:23:15.216Z,30.27
2018-02-08T10:25:42.706Z,30.60
2018-02-08T10:28:10.167Z,36.30
2018-02-08T10:30:37.629Z,36.53
2018-02-08T10:33:05.914Z,28.23
2018-02-08T10:35:34.150Z,31.10
2018-02-08T10:38:01.644Z,38.17
2018-02-08T10:40:29.880Z,32.60
2018-02-08T10:42:57.366Z,44.30
2018-02-08T10:45:24.825Z,36.70
2018-02-08T10:47:53.057Z,37.00
2018-02-08T10:50:20.529Z,58.87
2018-02-08T10:52:48.008Z,44.37
2018-02-08T10:55:15.478Z,36.47
2018-02-08T10:57:43.728Z,31.80
2018-02-08T11:00:11.195Z,35.83
2018-02-08T11:02:39.442Z,33.20
2018-02-08T11:05:06.898Z,34.00
2018-02-08T11:07:34.361Z,32.77
2018-02-08T11:10:02.037Z,35.07
2018-02-08T11:12:29.501Z,35.77
2018-02-08T11:14:57.730Z,33.07
2018-02-08T11:17:25.210Z,35.37
2018-02-08T11:19:52.678Z,30.17
2018-02-08T11:22:20.142Z,31.53
2018-02-08T11:24:47.615Z,31.90
2018-02-08T11:27:15.855Z,32.70
2018-02-08T11:29:43.335Z,29.70
2018-02-08T11:32:10.818Z,32.67
2018-02-08T11:34:38.277Z,32.60
2018-02-08T11:37:05.766Z,35.77
2018-02-08T11:39:33.229Z,32.27
2018-02-08T11:42:00.698Z,30.60
2018-02-08T11:44:28.177Z,35.00
2018-02-08T11:46:56.445Z,29.40
2018-02-08T11:49:23.910Z,31.80
2018-02-08T11:51:52.151Z,30.50
2018-02-08T11:54:19.608Z,37.23
2018-02-08T11:56:47.076Z,31.93
2018-02-08T11:59:14.558Z,39.03
2018-02-08T12:01:42.802Z,35.37
2018-02-08T12:04:10.303Z,31.70
2018-02-08T12:06:38.555Z,30.30
2018-02-08T12:09:06.013Z,36.60
2018-02-08T12:11:33.663Z,38.07
2018-02-08T12:14:02.646Z,37.37
2018-02-08T12:16:30.109Z,37.50
2018-02-08T12:18:57.578Z,37.53
2018-02-08T12:21:25.807Z,35.97
2018-02-08T12:23:53.307Z,34.07
2018-02-08T12:26:20.769Z,34.03
2018-02-08T12:28:49.010Z,35.53
2018-02-08T12:31:16.533Z,31.17
2018-02-08T12:33:44.201Z,36.47
2018-02-08T12:36:11.686Z,35.83
2018-02-08T12:38:39.141Z,36.90
2018-02-08T12:41:06.617Z,34.77
2018-02-08T12:43:39.821Z,41.80
2018-02-08T12:46:07.287Z,44.57
2018-02-08T12:48:35.526Z,40.83
2018-02-08T12:51:03.011Z,36.87
2018-02-08T12:53:31.256Z,41.60
2018-02-08T12:55:58.737Z,37.40
2018-02-08T12:58:27.058Z,48.73
2018-02-08T13:00:54.546Z,43.03
2018-02-08T13:03:22.030Z,45.13
2018-02-08T13:05:50.272Z,49.40
2018-02-08T13:08:17.734Z,46.97
2018-02-08T13:10:45.407Z,43.67
2018-02-08T13:13:12.861Z,41.47
2018-02-08T13:15:40.325Z,42.90
2018-02-08T13:18:07.818Z,45.93
2018-02-08T13:20:35.284Z,42.93
2018-02-08T13:23:02.749Z,40.40
2018-02-08T13:25:30.223Z,38.97
2018-02-08T13:27:57.687Z,47.60
2018-02-08T13:30:25.166Z,41.50
2018-02-08T13:32:52.623Z,36.47
2018-02-08T13:35:20.890Z,37.03
2018-02-08T13:37:49.118Z,37.43
2018-02-08T13:43:20.001Z,37.13
2018-02-08T13:45:47.499Z,48.37
2018-02-08T13:48:21.816Z,40.20
2018-02-08T13:51:10.057Z,33.20
2018-02-08T13:53:43.946Z,33.73
2018-02-08T13:56:25.359Z,34.60
2018-02-08T13:58:59.215Z,35.40
2018-02-08T14:01:30.350Z,31.17
2018-02-08T14:03:57.819Z,35.60
2018-02-08T14:06:25.335Z,39.23
2018-02-08T14:08:52.818Z,39.97
2018-02-08T14:11:20.287Z,35.47
2018-02-08T14:13:47.763Z,30.70
2018-02-08T14:16:15.242Z,34.37
2018-02-08T14:18:43.482Z,34.00
2018-02-08T14:21:10.970Z,39.10
2018-02-08T14:23:39.210Z,29.30
2018-02-08T14:26:06.674Z,28.27
2018-02-08T14:28:34.193Z,28.33
2018-02-08T14:31:01.659Z,27.70
2018-02-08T14:33:29.238Z,27.70
2018-02-08T14:35:58.704Z,29.27
2018-02-08T14:38:26.167Z,26.83
2018-02-08T14:40:53.653Z,30.80
2018-02-08T14:43:21.140Z,28.67
2018-02-08T14:45:48.628Z,29.80
2018-02-08T14:48:16.091Z,33.07
2018-02-08T14:50:43.574Z,32.97
2018-02-08T14:53:11.045Z,26.93
2018-02-08T14:55:38.512Z,26.90
2018-02-08T14:58:05.990Z,24.67
2018-02-08T15:00:34.239Z,26.67
2018-02-08T15:03:01.705Z,28.97
2018-02-08T15:05:29.190Z,25.80
2018-02-08T15:07:57.410Z,28.30
2018-02-08T15:10:25.095Z,27.97
2018-02-08T15:12:52.564Z,24.40
2018-02-08T15:15:20.804Z,25.03
2018-02-08T15:17:48.282Z,36.37
2018-02-08T15:20:15.745Z,28.97
2018-02-08T15:22:43.983Z,32.97
2018-02-08T15:25:11.472Z,34.87
2018-02-08T15:27:38.941Z,34.93
2018-02-08T15:30:07.168Z,30.13
2018-02-08T15:32:34.655Z,29.60
2018-02-08T15:35:02.124Z,30.40
2018-02-08T15:37:29.582Z,33.93
2018-02-08T15:39:57.831Z,31.97
2018-02-08T15:42:25.290Z,30.13
2018-02-08T15:44:53.553Z,26.50
2018-02-08T15:47:21.026Z,30.30
2018-02-08T15:49:48.496Z,36.30
2018-02-08T15:52:15.993Z,36.60
2018-02-08T15:54:43.451Z,44.50
2018-02-08T15:57:10.922Z,42.63
2018-02-08T15:59:38.385Z,36.37
2018-02-08T16:02:05.854Z,48.60
2018-02-08T16:04:33.403Z,41.20
2018-02-08T16:07:00.877Z,51.70
2018-02-08T16:09:28.337Z,35.93
2018-02-08T16:11:57.440Z,35.40
2018-02-08T16:14:24.901Z,34.28
2018-02-08T16:16:53.148Z,40.37
2018-02-08T16:19:20.632Z,36.42
2018-02-08T16:21:48.102Z,38.50
2018-02-08T16:24:16.358Z,34.78
2018-02-08T16:26:43.841Z,43.38
2018-02-08T16:29:11.334Z,39.40
2018-02-08T16:31:38.827Z,42.72
2018-02-08T16:34:06.311Z,53.25
2018-02-08T16:36:33.794Z,36.47
2018-02-08T16:39:01.276Z,38.40
2018-02-08T16:41:28.734Z,38.97
2018-02-08T16:43:56.232Z,38.15
2018-02-08T16:46:24.483Z,48.08
2018-02-08T16:48:51.961Z,48.65
2018-02-08T16:51:20.209Z,41.67
2018-02-08T16:53:47.670Z,39.47
2018-02-08T16:56:15.142Z,44.65
2018-02-08T16:58:43.404Z,34.67
2018-02-08T17:01:10.874Z,39.28
2018-02-08T17:03:39.126Z,38.50
2018-02-08T17:06:06.622Z,38.95
2018-02-08T17:08:34.926Z,42.55
2018-02-08T17:11:02.408Z,42.15
2018-02-08T17:13:29.890Z,40.75
2018-02-08T17:15:57.374Z,38.17
2018-02-08T17:18:24.838Z,38.85
2018-02-08T17:20:52.342Z,41.72
2018-02-08T17:23:19.806Z,38.90
2018-02-08T17:25:47.321Z,31.45
2018-02-08T17:28:14.794Z,39.40
2018-02-08T17:30:42.266Z,40.90
2018-02-08T17:33:09.751Z,45.83
2018-02-08T17:35:38.014Z,34.80
2018-02-08T17:38:05.524Z,40.45
2018-02-08T17:40:33.006Z,38.33
2018-02-08T17:43:00.788Z,41.90
2018-02-08T17:45:28.210Z,43.87
2018-02-08T17:47:55.723Z,40.47
2018-02-08T17:50:24.042Z,40.63
2018-02-08T17:52:51.517Z,42.10
2018-02-08T17:55:18.996Z,42.72
2018-02-08T17:57:46.507Z,43.50
2018-02-08T18:00:13.993Z,46.37
2018-02-08T18:02:41.475Z,47.00
2018-02-08T18:05:09.728Z,50.55
2018-02-08T18:07:37.386Z,48.50
2018-02-08T18:10:04.852Z,45.78
2018-02-08T18:12:32.493Z,43.72
2018-02-08T18:14:59.938Z,42.88
2018-02-08T18:17:27.419Z,58.67
2018-02-08T18:19:54.914Z,45.22
2018-02-08T18:22:23.156Z,45.90
2018-02-08T18:24:50.647Z,55.92
2018-02-08T18:27:18.951Z,52.03
2018-02-08T18:29:46.629Z,48.58
2018-02-08T18:32:14.824Z,51.28
2018-02-08T18:34:42.443Z,51.92
2018-02-08T18:37:09.934Z,100.57
2018-02-08T18:39:37.434Z,80.57
2018-02-08T18:42:05.668Z,90.20
2018-02-08T18:44:33.176Z,106.72
2018-02-08T18:47:01.410Z,120.97
2018-02-08T18:49:28.868Z,87.28
2018-02-08T18:51:57.881Z,84.15
2018-02-08T18:54:26.127Z,86.45
2018-02-08T18:56:53.625Z,74.60
2018-02-08T18:59:21.105Z,72.30
2018-02-08T19:01:48.586Z,60.88
2018-02-08T19:04:16.083Z,60.65
2018-02-08T19:06:44.318Z,66.50
2018-02-08T19:09:11.814Z,92.25
2018-02-08T19:11:40.205Z,96.28
2018-02-08T19:14:07.723Z,58.80
2018-02-08T19:16:35.195Z,53.80
2018-02-08T19:19:02.743Z,57.20
2018-02-08T19:21:31.020Z,46.97
2018-02-08T19:23:58.531Z,52.20
2018-02-08T19:26:26.010Z,59.17
2018-02-08T19:28:53.469Z,49.08
2018-02-08T19:31:21.005Z,59.80
2018-02-08T19:33:48.485Z,53.72
2018-02-08T19:36:15.966Z,58.60
2018-02-08T19:38:43.449Z,47.00
2018-02-08T19:41:11.673Z,55.50
2018-02-08T19:43:39.163Z,67.97
2018-02-08T19:46:06.639Z,52.80
2018-02-08T19:48:34.223Z,58.08
2018-02-08T19:51:01.733Z,57.13
2018-02-08T19:53:29.486Z,61.72
2018-02-08T19:55:56.970Z,45.30
2018-02-08T19:58:25.203Z,53.78
2018-02-08T20:00:52.690Z,48.80
2018-02-08T20:03:20.142Z,55.92
2018-02-08T20:05:47.601Z,57.30
2018-02-08T20:08:15.107Z,55.72
2018-02-08T20:10:42.598Z,57.95
2018-02-08T20:13:10.063Z,51.83
2018-02-08T20:15:37.688Z,54.08
2018-02-08T20:18:05.164Z,61.65
2018-02-08T20:20:32.633Z,56.33
2018-02-08T20:23:00.127Z,51.90
2018-02-08T20:25:46.202Z,52.92
2018-02-08T20:28:14.434Z,57.33
2018-02-08T20:30:41.907Z,57.17
2018-02-08T20:33:09.403Z,53.38
2018-02-08T20:35:36.894Z,56.13
2018-02-08T20:38:04.345Z,51.45
2018-02-08T20:40:32.062Z,76.25
2018-02-08T20:43:05.195Z,51.15
2018-02-08T20:45:32.704Z,52.50
2018-02-08T20:48:00.945Z,54.13
2018-02-08T20:50:28.431Z,59.05
2018-02-08T20:52:56.097Z,65.95
2018-02-08T20:55:23.570Z,62.47
2018-02-08T20:57:51.051Z,53.85
2018-02-08T21:00:18.550Z,51.65
2018-02-08T21:02:46.030Z,50.22
2018-02-08T21:05:14.307Z,58.65
2018-02-08T21:07:42.562Z,56.90
2018-02-08T21:10:10.038Z,54.13
2018-02-08T21:12:38.306Z,49.20
2018-02-08T21:15:07.510Z,56.55
2018-02-08T21:17:34.981Z,51.05
2018-02-08T21:20:03.242Z,55.17
2018-02-08T21:22:30.742Z,53.85
2018-02-08T21:24:58.209Z,55.25
2018-02-08T21:27:25.671Z,48.85
2018-02-08T21:29:53.138Z,56.17
2018-02-08T21:32:20.608Z,52.50
2018-02-08T21:34:48.112Z,48.78
2018-02-08T21:37:15.578Z,50.20
2018-02-08T21:39:43.073Z,52.80
2018-02-08T21:42:10.643Z,49.53
2018-02-08T21:44:38.148Z,58.95
2018-02-08T21:47:05.713Z,54.90
2018-02-08T21:49:33.344Z,51.63
2018-02-08T21:52:01.570Z,56.15
2018-02-08T21:54:29.039Z,52.72
2018-02-08T21:56:56.527Z,50.25
2018-02-08T21:59:24.758Z,54.33
2018-02-08T22:01:53.019Z,50.85
2018-02-08T22:04:20.479Z,59.33
2018-02-08T22:06:47.966Z,50.47
2018-02-08T22:09:15.458Z,59.88
2018-02-08T22:11:42.935Z,55.03
2018-02-08T22:14:10.435Z,51.75
2018-02-08T22:16:38.094Z,65.75
2018-02-08T22:19:05.584Z,60.30
2018-02-08T22:21:33.810Z,54.25
2018-02-08T22:24:01.305Z,46.92
2018-02-08T22:26:29.613Z,63.95
2018-02-08T22:28:57.230Z,58.70
2018-02-08T22:31:24.698Z,54.90
2018-02-08T22:33:52.921Z,52.92
2018-02-08T22:36:20.412Z,55.85
2018-02-08T22:38:48.652Z,50.25
2018-02-08T22:41:16.130Z,54.30
2018-02-08T22:43:43.650Z,61.83
2018-02-08T22:46:11.110Z,58.38
2018-02-08T22:48:38.591Z,68.15
2018-02-08T22:51:06.054Z,55.97
2018-02-08T22:53:33.552Z,52.75
2018-02-08T22:56:01.785Z,60.03
2018-02-08T22:58:29.261Z,55.42
2018-02-08T23:00:56.744Z,54.97
2018-02-08T23:03:24.966Z,60.35
2018-02-08T23:05:52.459Z,56.88
2018-02-08T23:08:20.109Z,45.03
2018-02-08T23:10:47.582Z,54.90
2018-02-08T23:13:15.809Z,52.55
2018-02-08T23:15:43.298Z,48.45
2018-02-08T23:18:10.778Z,55.75
2018-02-08T23:20:39.014Z,59.42
2018-02-08T23:23:08.028Z,58.20
2018-02-08T23:25:35.489Z,51.63
2018-02-08T23:28:03.722Z,51.78
2018-02-08T23:30:31.225Z,56.92
2018-02-08T23:32:59.463Z,61.55
2018-02-08T23:35:26.924Z,57.92
2018-02-08T23:37:54.410Z,56.10
2018-02-08T23:40:22.657Z,57.97
2018-02-08T23:42:50.164Z,59.30
2018-02-08T23:45:17.687Z,51.15
2018-02-08T23:47:45.161Z,53.30
2018-02-08T23:50:13.402Z,54.90
2018-02-08T23:52:40.859Z,59.05
2018-02-08T23:55:08.345Z,62.15
2018-02-08T23:57:36.586Z,64.20
